sensor_id;sensor_type;location;lat;lon;timestamp;P1;durP1;ratioP1;P2;durP2;ratioP2
28958;SDS011;16066;0.000;0.000;2022-07-18T00:00:22;7.60;;;3.80;;
28958;SDS011;16066;0.000;0.000;2022-07-18T00:02:48;4.27;;;3.27;;
28958;SDS011;16066;0.000;0.000;2022-07-18T00:05:14;6.47;;;3.40;;
28958;SDS011;16066;0.000;0.000;2022-07-18T00:07:39;5.70;;;2.90;;
28958;SDS011;16066;0.000;0.000;2022-07-18T00:10:05;5.33;;;2.83;;
28958;SDS011;16066;0.000;0.000;2022-07-18T00:12:31;7.13;;;2.63;;
28958;SDS011;16066;0.000;0.000;2022-07-18T00:14:56;4.60;;;2.20;;
28958;SDS011;16066;0.000;0.000;2022-07-18T00:17:22;4.00;;;2.27;;
28958;SDS011;16066;0.000;0.000;2022-07-18T00:19:47;6.37;;;2.57;;
28958;SDS011;16066;0.000;0.000;2022-07-18T00:22:13;4.77;;;2.40;;
28958;SDS011;16066;0.000;0.000;2022-07-18T00:24:38;4.27;;;2.50;;
28958;SDS011;16066;0.000;0.000;2022-07-18T00:27:04;5.70;;;3.10;;
28958;SDS011;16066;0.000;0.000;2022-07-18T00:29:32;5.20;;;3.33;;
28958;SDS011;16066;0.000;0.000;2022-07-18T00:32:00;3.23;;;2.00;;
28958;SDS011;16066;0.000;0.000;2022-07-18T00:34:26;4.50;;;2.60;;
28958;SDS011;16066;0.000;0.000;2022-07-18T00:36:52;4.30;;;2.40;;
28958;SDS011;16066;0.000;0.000;2022-07-18T00:39:17;3.03;;;2.20;;
28958;SDS011;16066;0.000;0.000;2022-07-18T00:41:47;4.73;;;2.70;;
28958;SDS011;16066;0.000;0.000;2022-07-18T00:44:17;4.00;;;2.40;;
28958;SDS011;16066;0.000;0.000;2022-07-18T00:46:51;4.40;;;2.63;;
28958;SDS011;16066;0.000;0.000;2022-07-18T00:49:19;4.73;;;2.70;;
28958;SDS011;16066;0.000;0.000;2022-07-18T00:51:44;3.60;;;2.23;;
28958;SDS011;16066;0.000;0.000;2022-07-18T00:54:10;3.17;;;2.17;;
28958;SDS011;16066;0.000;0.000;2022-07-18T00:56:36;6.33;;;2.30;;
28958;SDS011;16066;0.000;0.000;2022-07-18T00:59:02;5.33;;;2.47;;
28958;SDS011;16066;0.000;0.000;2022-07-18T01:01:28;6.00;;;3.17;;
28958;SDS011;16066;0.000;0.000;2022-07-18T01:04:20;4.87;;;2.40;;
28958;SDS011;16066;0.000;0.000;2022-07-18T01:06:48;3.80;;;2.40;;
28958;SDS011;16066;0.000;0.000;2022-07-18T01:09:15;5.00;;;2.10;;
28958;SDS011;16066;0.000;0.000;2022-07-18T01:11:45;3.80;;;2.20;;
28958;SDS011;16066;0.000;0.000;2022-07-18T01:14:12;3.83;;;2.20;;
28958;SDS011;16066;0.000;0.000;2022-07-18T01:16:38;4.20;;;2.43;;
28958;SDS011;16066;0.000;0.000;2022-07-18T01:19:04;5.50;;;2.50;;
28958;SDS011;16066;0.000;0.000;2022-07-18T01:21:30;2.27;;;1.90;;
28958;SDS011;16066;0.000;0.000;2022-07-18T01:23:56;6.87;;;2.17;;
28958;SDS011;16066;0.000;0.000;2022-07-18T01:26:22;2.80;;;2.13;;
28958;SDS011;16066;0.000;0.000;2022-07-18T01:28:48;2.50;;;1.90;;
28958;SDS011;16066;0.000;0.000;2022-07-18T01:31:13;5.17;;;2.07;;
28958;SDS011;16066;0.000;0.000;2022-07-18T01:33:39;3.27;;;2.20;;
28958;SDS011;16066;0.000;0.000;2022-07-18T01:36:06;3.27;;;2.03;;
28958;SDS011;16066;0.000;0.000;2022-07-18T01:38:32;8.70;;;2.20;;
28958;SDS011;16066;0.000;0.000;2022-07-18T01:40:58;3.53;;;2.40;;
28958;SDS011;16066;0.000;0.000;2022-07-18T01:43:24;3.23;;;2.03;;
28958;SDS011;16066;0.000;0.000;2022-07-18T01:45:50;4.97;;;2.10;;
28958;SDS011;16066;0.000;0.000;2022-07-18T01:48:16;3.73;;;2.43;;
28958;SDS011;16066;0.000;0.000;2022-07-18T01:50:42;3.80;;;2.23;;
28958;SDS011;16066;0.000;0.000;2022-07-18T01:53:08;4.23;;;2.17;;
28958;SDS011;16066;0.000;0.000;2022-07-18T01:55:33;4.70;;;2.17;;
28958;SDS011;16066;0.000;0.000;2022-07-18T01:57:59;4.67;;;2.30;;
28958;SDS011;16066;0.000;0.000;2022-07-18T02:00:25;5.00;;;2.37;;
28958;SDS011;16066;0.000;0.000;2022-07-18T02:02:50;3.40;;;2.00;;
28958;SDS011;16066;0.000;0.000;2022-07-18T02:05:16;6.17;;;2.33;;
28958;SDS011;16066;0.000;0.000;2022-07-18T02:07:42;2.40;;;1.70;;
28958;SDS011;16066;0.000;0.000;2022-07-18T02:10:12;4.50;;;2.60;;
28958;SDS011;16066;0.000;0.000;2022-07-18T02:12:40;3.87;;;2.10;;
28958;SDS011;16066;0.000;0.000;2022-07-18T02:15:06;3.37;;;2.10;;
28958;SDS011;16066;0.000;0.000;2022-07-18T02:17:34;2.80;;;2.17;;
28958;SDS011;16066;0.000;0.000;2022-07-18T02:20:00;3.13;;;1.80;;
28958;SDS011;16066;0.000;0.000;2022-07-18T02:22:27;2.70;;;1.80;;
28958;SDS011;16066;0.000;0.000;2022-07-18T02:24:53;4.23;;;2.20;;
28958;SDS011;16066;0.000;0.000;2022-07-18T02:27:18;4.37;;;1.80;;
28958;SDS011;16066;0.000;0.000;2022-07-18T02:29:44;2.17;;;1.97;;
28958;SDS011;16066;0.000;0.000;2022-07-18T02:32:10;3.17;;;1.83;;
28958;SDS011;16066;0.000;0.000;2022-07-18T02:34:36;3.77;;;2.00;;
28958;SDS011;16066;0.000;0.000;2022-07-18T02:37:02;2.97;;;1.97;;
28958;SDS011;16066;0.000;0.000;2022-07-18T02:39:28;4.40;;;1.93;;
28958;SDS011;16066;0.000;0.000;2022-07-18T02:41:54;4.73;;;1.80;;
28958;SDS011;16066;0.000;0.000;2022-07-18T02:44:20;4.40;;;1.80;;
28958;SDS011;16066;0.000;0.000;2022-07-18T02:46:45;2.90;;;1.80;;
28958;SDS011;16066;0.000;0.000;2022-07-18T02:49:11;5.67;;;1.77;;
28958;SDS011;16066;0.000;0.000;2022-07-18T02:51:51;3.40;;;1.80;;
28958;SDS011;16066;0.000;0.000;2022-07-18T02:54:30;2.60;;;1.80;;
28958;SDS011;16066;0.000;0.000;2022-07-18T02:56:58;5.10;;;2.00;;
28958;SDS011;16066;0.000;0.000;2022-07-18T02:59:24;4.33;;;1.97;;
28958;SDS011;16066;0.000;0.000;2022-07-18T03:01:50;5.63;;;2.07;;
28958;SDS011;16066;0.000;0.000;2022-07-18T03:04:17;3.07;;;2.27;;
28958;SDS011;16066;0.000;0.000;2022-07-18T03:06:43;2.43;;;1.87;;
28958;SDS011;16066;0.000;0.000;2022-07-18T03:09:09;5.30;;;1.93;;
28958;SDS011;16066;0.000;0.000;2022-07-18T03:11:35;5.10;;;2.67;;
28958;SDS011;16066;0.000;0.000;2022-07-18T03:14:00;2.90;;;2.00;;
28958;SDS011;16066;0.000;0.000;2022-07-18T03:16:26;9.23;;;2.13;;
28958;SDS011;16066;0.000;0.000;2022-07-18T03:18:51;3.33;;;1.90;;
28958;SDS011;16066;0.000;0.000;2022-07-18T03:21:17;2.80;;;2.00;;
28958;SDS011;16066;0.000;0.000;2022-07-18T03:23:42;2.63;;;1.80;;
28958;SDS011;16066;0.000;0.000;2022-07-18T03:26:08;7.50;;;2.10;;
28958;SDS011;16066;0.000;0.000;2022-07-18T03:28:34;2.93;;;1.83;;
28958;SDS011;16066;0.000;0.000;2022-07-18T03:30:59;4.27;;;2.40;;
28958;SDS011;16066;0.000;0.000;2022-07-18T03:33:25;4.50;;;2.13;;
28958;SDS011;16066;0.000;0.000;2022-07-18T03:35:51;3.77;;;1.87;;
28958;SDS011;16066;0.000;0.000;2022-07-18T03:38:17;2.83;;;2.00;;
28958;SDS011;16066;0.000;0.000;2022-07-18T03:40:42;7.10;;;2.37;;
28958;SDS011;16066;0.000;0.000;2022-07-18T03:43:08;11.13;;;2.43;;
28958;SDS011;16066;0.000;0.000;2022-07-18T03:45:33;4.33;;;1.87;;
28958;SDS011;16066;0.000;0.000;2022-07-18T03:47:59;8.23;;;2.00;;
28958;SDS011;16066;0.000;0.000;2022-07-18T03:50:24;3.63;;;2.33;;
28958;SDS011;16066;0.000;0.000;2022-07-18T03:52:52;4.27;;;2.20;;
28958;SDS011;16066;0.000;0.000;2022-07-18T03:55:18;3.53;;;2.23;;
28958;SDS011;16066;0.000;0.000;2022-07-18T03:57:44;5.07;;;2.30;;
28958;SDS011;16066;0.000;0.000;2022-07-18T04:00:09;5.90;;;1.93;;
28958;SDS011;16066;0.000;0.000;2022-07-18T04:02:39;4.90;;;2.13;;
28958;SDS011;16066;0.000;0.000;2022-07-18T04:05:06;7.17;;;2.90;;
28958;SDS011;16066;0.000;0.000;2022-07-18T04:07:32;2.73;;;2.10;;
28958;SDS011;16066;0.000;0.000;2022-07-18T04:09:58;5.93;;;3.00;;
28958;SDS011;16066;0.000;0.000;2022-07-18T04:12:23;2.70;;;1.80;;
28958;SDS011;16066;0.000;0.000;2022-07-18T04:14:49;3.30;;;2.40;;
28958;SDS011;16066;0.000;0.000;2022-07-18T04:17:14;4.30;;;2.27;;
28958;SDS011;16066;0.000;0.000;2022-07-18T04:19:40;3.87;;;2.10;;
28958;SDS011;16066;0.000;0.000;2022-07-18T04:22:05;4.10;;;2.47;;
28958;SDS011;16066;0.000;0.000;2022-07-18T04:24:31;8.13;;;2.30;;
28958;SDS011;16066;0.000;0.000;2022-07-18T04:26:56;2.60;;;2.20;;
28958;SDS011;16066;0.000;0.000;2022-07-18T04:29:22;5.13;;;2.47;;
28958;SDS011;16066;0.000;0.000;2022-07-18T04:31:48;7.33;;;2.60;;
28958;SDS011;16066;0.000;0.000;2022-07-18T04:34:13;2.90;;;2.33;;
28958;SDS011;16066;0.000;0.000;2022-07-18T04:36:39;4.13;;;2.17;;
28958;SDS011;16066;0.000;0.000;2022-07-18T04:39:04;4.23;;;2.20;;
28958;SDS011;16066;0.000;0.000;2022-07-18T04:41:30;4.40;;;2.40;;
28958;SDS011;16066;0.000;0.000;2022-07-18T04:43:55;3.00;;;2.07;;
28958;SDS011;16066;0.000;0.000;2022-07-18T04:46:21;4.40;;;2.30;;
28958;SDS011;16066;0.000;0.000;2022-07-18T04:48:46;3.73;;;2.40;;
28958;SDS011;16066;0.000;0.000;2022-07-18T04:51:12;3.60;;;2.47;;
28958;SDS011;16066;0.000;0.000;2022-07-18T04:53:37;6.70;;;2.23;;
28958;SDS011;16066;0.000;0.000;2022-07-18T04:56:03;6.40;;;2.63;;
28958;SDS011;16066;0.000;0.000;2022-07-18T04:58:29;6.80;;;2.87;;
28958;SDS011;16066;0.000;0.000;2022-07-18T05:00:55;4.33;;;2.23;;
28958;SDS011;16066;0.000;0.000;2022-07-18T05:03:21;5.10;;;2.40;;
28958;SDS011;16066;0.000;0.000;2022-07-18T05:05:46;4.07;;;2.23;;
28958;SDS011;16066;0.000;0.000;2022-07-18T05:08:12;6.50;;;2.13;;
28958;SDS011;16066;0.000;0.000;2022-07-18T05:10:39;4.73;;;2.67;;
28958;SDS011;16066;0.000;0.000;2022-07-18T05:13:05;4.33;;;2.47;;
28958;SDS011;16066;0.000;0.000;2022-07-18T05:15:30;6.70;;;2.37;;
28958;SDS011;16066;0.000;0.000;2022-07-18T05:17:56;3.60;;;1.93;;
28958;SDS011;16066;0.000;0.000;2022-07-18T05:20:22;8.87;;;2.77;;
28958;SDS011;16066;0.000;0.000;2022-07-18T05:22:50;5.67;;;2.37;;
28958;SDS011;16066;0.000;0.000;2022-07-18T05:25:16;8.90;;;2.40;;
28958;SDS011;16066;0.000;0.000;2022-07-18T05:27:42;4.23;;;1.93;;
28958;SDS011;16066;0.000;0.000;2022-07-18T05:30:09;4.17;;;2.17;;
28958;SDS011;16066;0.000;0.000;2022-07-18T05:32:36;5.27;;;2.33;;
28958;SDS011;16066;0.000;0.000;2022-07-18T05:35:02;4.10;;;2.53;;
28958;SDS011;16066;0.000;0.000;2022-07-18T05:37:28;3.10;;;2.10;;
28958;SDS011;16066;0.000;0.000;2022-07-18T05:39:53;5.30;;;2.57;;
28958;SDS011;16066;0.000;0.000;2022-07-18T05:42:19;6.20;;;2.63;;
28958;SDS011;16066;0.000;0.000;2022-07-18T05:44:45;4.80;;;2.43;;
28958;SDS011;16066;0.000;0.000;2022-07-18T05:47:11;7.83;;;2.67;;
28958;SDS011;16066;0.000;0.000;2022-07-18T05:49:38;10.10;;;2.60;;
28958;SDS011;16066;0.000;0.000;2022-07-18T05:52:04;8.97;;;2.50;;
28958;SDS011;16066;0.000;0.000;2022-07-18T05:54:30;5.23;;;2.40;;
28958;SDS011;16066;0.000;0.000;2022-07-18T05:56:55;6.33;;;2.20;;
28958;SDS011;16066;0.000;0.000;2022-07-18T05:59:21;10.97;;;2.20;;
28958;SDS011;16066;0.000;0.000;2022-07-18T06:01:46;4.90;;;2.30;;
28958;SDS011;16066;0.000;0.000;2022-07-18T06:04:12;5.77;;;2.47;;
28958;SDS011;16066;0.000;0.000;2022-07-18T06:06:38;4.60;;;2.10;;
28958;SDS011;16066;0.000;0.000;2022-07-18T06:09:04;7.40;;;2.80;;
28958;SDS011;16066;0.000;0.000;2022-07-18T06:11:30;5.03;;;2.20;;
28958;SDS011;16066;0.000;0.000;2022-07-18T06:13:56;6.03;;;2.53;;
28958;SDS011;16066;0.000;0.000;2022-07-18T06:16:22;6.33;;;2.83;;
28958;SDS011;16066;0.000;0.000;2022-07-18T06:18:47;6.13;;;2.60;;
28958;SDS011;16066;0.000;0.000;2022-07-18T06:21:13;4.60;;;2.27;;
28958;SDS011;16066;0.000;0.000;2022-07-18T06:23:39;6.13;;;2.17;;
28958;SDS011;16066;0.000;0.000;2022-07-18T06:26:05;3.80;;;2.20;;
28958;SDS011;16066;0.000;0.000;2022-07-18T06:28:30;4.10;;;1.97;;
28958;SDS011;16066;0.000;0.000;2022-07-18T06:30:56;5.70;;;2.10;;
28958;SDS011;16066;0.000;0.000;2022-07-18T06:33:22;9.10;;;2.60;;
28958;SDS011;16066;0.000;0.000;2022-07-18T06:35:48;5.07;;;1.90;;
28958;SDS011;16066;0.000;0.000;2022-07-18T06:38:14;2.97;;;1.80;;
28958;SDS011;16066;0.000;0.000;2022-07-18T06:40:41;4.03;;;2.10;;
28958;SDS011;16066;0.000;0.000;2022-07-18T06:43:07;13.73;;;2.23;;
28958;SDS011;16066;0.000;0.000;2022-07-18T06:45:33;4.30;;;2.30;;
28958;SDS011;16066;0.000;0.000;2022-07-18T06:47:58;3.40;;;2.00;;
28958;SDS011;16066;0.000;0.000;2022-07-18T06:50:24;5.10;;;2.20;;
28958;SDS011;16066;0.000;0.000;2022-07-18T06:52:50;5.17;;;2.10;;
28958;SDS011;16066;0.000;0.000;2022-07-18T06:55:16;5.90;;;2.40;;
28958;SDS011;16066;0.000;0.000;2022-07-18T06:57:42;3.97;;;2.50;;
28958;SDS011;16066;0.000;0.000;2022-07-18T07:00:09;7.10;;;2.20;;
28958;SDS011;16066;0.000;0.000;2022-07-18T07:02:44;5.73;;;2.20;;
28958;SDS011;16066;0.000;0.000;2022-07-18T07:05:12;6.07;;;2.13;;
28958;SDS011;16066;0.000;0.000;2022-07-18T07:07:38;6.13;;;1.90;;
28958;SDS011;16066;0.000;0.000;2022-07-18T07:10:04;4.37;;;1.97;;
28958;SDS011;16066;0.000;0.000;2022-07-18T07:12:30;7.37;;;2.20;;
28958;SDS011;16066;0.000;0.000;2022-07-18T07:15:02;5.07;;;2.37;;
28958;SDS011;16066;0.000;0.000;2022-07-18T07:17:27;3.20;;;1.80;;
28958;SDS011;16066;0.000;0.000;2022-07-18T07:19:54;2.20;;;1.60;;
28958;SDS011;16066;0.000;0.000;2022-07-18T07:22:20;3.47;;;1.80;;
28958;SDS011;16066;0.000;0.000;2022-07-18T07:24:45;4.03;;;1.90;;
28958;SDS011;16066;0.000;0.000;2022-07-18T07:27:11;8.13;;;2.10;;
28958;SDS011;16066;0.000;0.000;2022-07-18T07:29:37;3.53;;;2.37;;
28958;SDS011;16066;0.000;0.000;2022-07-18T07:32:02;6.17;;;1.97;;
28958;SDS011;16066;0.000;0.000;2022-07-18T07:34:28;5.23;;;2.10;;
28958;SDS011;16066;0.000;0.000;2022-07-18T07:36:55;5.23;;;2.40;;
28958;SDS011;16066;0.000;0.000;2022-07-18T07:39:20;4.23;;;2.50;;
28958;SDS011;16066;0.000;0.000;2022-07-18T07:41:46;10.77;;;2.20;;
28958;SDS011;16066;0.000;0.000;2022-07-18T07:44:11;5.60;;;1.70;;
28958;SDS011;16066;0.000;0.000;2022-07-18T07:46:37;5.53;;;2.57;;
28958;SDS011;16066;0.000;0.000;2022-07-18T07:49:02;2.50;;;1.60;;
28958;SDS011;16066;0.000;0.000;2022-07-18T07:51:28;5.40;;;2.33;;
28958;SDS011;16066;0.000;0.000;2022-07-18T07:53:54;4.00;;;1.67;;
28958;SDS011;16066;0.000;0.000;2022-07-18T07:56:19;2.20;;;1.50;;
28958;SDS011;16066;0.000;0.000;2022-07-18T07:58:45;5.63;;;2.40;;
28958;SDS011;16066;0.000;0.000;2022-07-18T08:01:11;3.20;;;1.70;;
28958;SDS011;16066;0.000;0.000;2022-07-18T08:03:37;2.50;;;1.60;;
28958;SDS011;16066;0.000;0.000;2022-07-18T08:06:03;10.17;;;1.77;;
28958;SDS011;16066;0.000;0.000;2022-07-18T08:08:29;1.90;;;1.57;;
28958;SDS011;16066;0.000;0.000;2022-07-18T08:10:54;11.53;;;2.57;;
28958;SDS011;16066;0.000;0.000;2022-07-18T08:13:20;4.47;;;1.63;;
28958;SDS011;16066;0.000;0.000;2022-07-18T08:15:46;1.70;;;1.40;;
28958;SDS011;16066;0.000;0.000;2022-07-18T08:18:12;5.63;;;2.30;;
28958;SDS011;16066;0.000;0.000;2022-07-18T08:20:37;2.10;;;1.70;;
28958;SDS011;16066;0.000;0.000;2022-07-18T08:23:04;2.93;;;1.97;;
28958;SDS011;16066;0.000;0.000;2022-07-18T08:25:32;2.70;;;1.70;;
28958;SDS011;16066;0.000;0.000;2022-07-18T08:28:00;5.10;;;1.77;;
28958;SDS011;16066;0.000;0.000;2022-07-18T08:30:27;2.43;;;1.70;;
28958;SDS011;16066;0.000;0.000;2022-07-18T08:32:54;2.70;;;1.70;;
28958;SDS011;16066;0.000;0.000;2022-07-18T08:35:20;3.53;;;2.00;;
28958;SDS011;16066;0.000;0.000;2022-07-18T08:37:45;1.60;;;1.50;;
28958;SDS011;16066;0.000;0.000;2022-07-18T08:40:11;3.23;;;1.70;;
28958;SDS011;16066;0.000;0.000;2022-07-18T08:42:37;3.43;;;1.53;;
28958;SDS011;16066;0.000;0.000;2022-07-18T08:45:03;2.70;;;1.80;;
28958;SDS011;16066;0.000;0.000;2022-07-18T08:47:30;2.00;;;1.43;;
28958;SDS011;16066;0.000;0.000;2022-07-18T08:49:56;3.30;;;1.80;;
28958;SDS011;16066;0.000;0.000;2022-07-18T08:52:22;3.17;;;1.80;;
28958;SDS011;16066;0.000;0.000;2022-07-18T08:54:48;2.37;;;1.70;;
28958;SDS011;16066;0.000;0.000;2022-07-18T08:57:14;4.70;;;1.90;;
28958;SDS011;16066;0.000;0.000;2022-07-18T08:59:43;1.57;;;1.40;;
28958;SDS011;16066;0.000;0.000;2022-07-18T09:02:09;2.80;;;1.60;;
28958;SDS011;16066;0.000;0.000;2022-07-18T09:04:36;3.20;;;1.80;;
28958;SDS011;16066;0.000;0.000;2022-07-18T09:07:03;1.90;;;1.60;;
28958;SDS011;16066;0.000;0.000;2022-07-18T09:09:30;4.30;;;1.40;;
28958;SDS011;16066;0.000;0.000;2022-07-18T09:11:58;8.03;;;1.57;;
28958;SDS011;16066;0.000;0.000;2022-07-18T09:14:33;1.93;;;1.30;;
28958;SDS011;16066;0.000;0.000;2022-07-18T09:17:00;1.47;;;1.13;;
28958;SDS011;16066;0.000;0.000;2022-07-18T09:19:36;2.43;;;1.30;;
28958;SDS011;16066;0.000;0.000;2022-07-18T09:22:19;1.97;;;1.70;;
28958;SDS011;16066;0.000;0.000;2022-07-18T09:27:39;4.33;;;1.57;;
28958;SDS011;16066;0.000;0.000;2022-07-18T09:32:44;2.73;;;1.50;;
28958;SDS011;16066;0.000;0.000;2022-07-18T09:35:14;3.00;;;1.33;;
28958;SDS011;16066;0.000;0.000;2022-07-18T09:37:51;3.60;;;1.67;;
28958;SDS011;16066;0.000;0.000;2022-07-18T09:40:33;3.37;;;1.97;;
28958;SDS011;16066;0.000;0.000;2022-07-18T09:43:00;4.60;;;2.47;;
28958;SDS011;16066;0.000;0.000;2022-07-18T09:45:37;2.53;;;1.77;;
28958;SDS011;16066;0.000;0.000;2022-07-18T09:48:05;1.90;;;1.47;;
28958;SDS011;16066;0.000;0.000;2022-07-18T09:53:04;4.27;;;2.10;;
28958;SDS011;16066;0.000;0.000;2022-07-18T09:55:44;2.37;;;1.30;;
28958;SDS011;16066;0.000;0.000;2022-07-18T09:58:15;2.03;;;1.60;;
28958;SDS011;16066;0.000;0.000;2022-07-18T10:00:43;5.80;;;2.07;;
28958;SDS011;16066;0.000;0.000;2022-07-18T10:03:10;3.00;;;1.40;;
28958;SDS011;16066;0.000;0.000;2022-07-18T10:05:36;5.27;;;1.57;;
28958;SDS011;16066;0.000;0.000;2022-07-18T10:08:05;6.37;;;1.63;;
28958;SDS011;16066;0.000;0.000;2022-07-18T10:10:32;2.87;;;1.93;;
28958;SDS011;16066;0.000;0.000;2022-07-18T10:12:58;2.30;;;1.70;;
28958;SDS011;16066;0.000;0.000;2022-07-18T10:15:27;2.47;;;1.50;;
28958;SDS011;16066;0.000;0.000;2022-07-18T10:17:54;2.30;;;1.50;;
28958;SDS011;16066;0.000;0.000;2022-07-18T10:20:25;6.40;;;1.60;;
28958;SDS011;16066;0.000;0.000;2022-07-18T10:22:56;1.87;;;1.40;;
28958;SDS011;16066;0.000;0.000;2022-07-18T10:25:25;2.67;;;1.50;;
28958;SDS011;16066;0.000;0.000;2022-07-18T10:27:53;2.10;;;1.70;;
28958;SDS011;16066;0.000;0.000;2022-07-18T10:30:36;1.93;;;1.40;;
28958;SDS011;16066;0.000;0.000;2022-07-18T10:33:05;3.17;;;1.97;;
28958;SDS011;16066;0.000;0.000;2022-07-18T10:36:06;2.30;;;1.83;;
28958;SDS011;16066;0.000;0.000;2022-07-18T10:38:37;2.37;;;1.60;;
28958;SDS011;16066;0.000;0.000;2022-07-18T10:41:08;2.07;;;1.80;;
28958;SDS011;16066;0.000;0.000;2022-07-18T10:43:36;2.87;;;1.90;;
28958;SDS011;16066;0.000;0.000;2022-07-18T10:46:04;3.83;;;2.03;;
28958;SDS011;16066;0.000;0.000;2022-07-18T10:51:08;4.13;;;1.80;;
28958;SDS011;16066;0.000;0.000;2022-07-18T10:58:56;3.70;;;2.00;;
28958;SDS011;16066;0.000;0.000;2022-07-18T11:01:39;8.63;;;1.90;;
28958;SDS011;16066;0.000;0.000;2022-07-18T11:04:22;3.20;;;1.67;;
28958;SDS011;16066;0.000;0.000;2022-07-18T11:06:54;3.20;;;1.60;;
28958;SDS011;16066;0.000;0.000;2022-07-18T11:14:58;3.67;;;1.87;;
28958;SDS011;16066;0.000;0.000;2022-07-18T11:22:48;3.23;;;1.80;;
28958;SDS011;16066;0.000;0.000;2022-07-18T11:25:14;2.03;;;1.57;;
28958;SDS011;16066;0.000;0.000;2022-07-18T11:27:41;1.40;;;1.30;;
28958;SDS011;16066;0.000;0.000;2022-07-18T11:30:08;1.97;;;1.50;;
28958;SDS011;16066;0.000;0.000;2022-07-18T11:32:34;2.40;;;1.73;;
28958;SDS011;16066;0.000;0.000;2022-07-18T11:34:59;2.40;;;1.67;;
28958;SDS011;16066;0.000;0.000;2022-07-18T11:37:25;2.90;;;1.67;;
28958;SDS011;16066;0.000;0.000;2022-07-18T11:39:51;5.33;;;2.03;;
28958;SDS011;16066;0.000;0.000;2022-07-18T11:42:16;3.80;;;1.77;;
28958;SDS011;16066;0.000;0.000;2022-07-18T11:44:43;1.60;;;1.50;;
28958;SDS011;16066;0.000;0.000;2022-07-18T11:47:09;3.07;;;1.93;;
28958;SDS011;16066;0.000;0.000;2022-07-18T11:49:37;3.47;;;2.10;;
28958;SDS011;16066;0.000;0.000;2022-07-18T11:52:03;2.10;;;1.87;;
28958;SDS011;16066;0.000;0.000;2022-07-18T11:54:30;2.43;;;1.73;;
28958;SDS011;16066;0.000;0.000;2022-07-18T11:56:57;3.00;;;1.93;;
28958;SDS011;16066;0.000;0.000;2022-07-18T11:59:26;1.47;;;1.30;;
28958;SDS011;16066;0.000;0.000;2022-07-18T12:02:00;2.90;;;1.50;;
28958;SDS011;16066;0.000;0.000;2022-07-18T12:04:26;2.00;;;1.50;;
28958;SDS011;16066;0.000;0.000;2022-07-18T12:07:11;2.83;;;1.43;;
28958;SDS011;16066;0.000;0.000;2022-07-18T12:09:45;2.20;;;1.90;;
28958;SDS011;16066;0.000;0.000;2022-07-18T12:12:12;3.83;;;1.90;;
28958;SDS011;16066;0.000;0.000;2022-07-18T12:14:39;2.53;;;1.73;;
28958;SDS011;16066;0.000;0.000;2022-07-18T12:17:05;1.63;;;1.43;;
28958;SDS011;16066;0.000;0.000;2022-07-18T12:19:36;3.03;;;1.80;;
28958;SDS011;16066;0.000;0.000;2022-07-18T12:22:05;2.83;;;1.77;;
28958;SDS011;16066;0.000;0.000;2022-07-18T12:24:38;1.80;;;1.40;;
28958;SDS011;16066;0.000;0.000;2022-07-18T12:27:18;3.10;;;1.70;;
28958;SDS011;16066;0.000;0.000;2022-07-18T12:32:24;1.73;;;1.50;;
28958;SDS011;16066;0.000;0.000;2022-07-18T12:35:10;1.90;;;1.70;;
28958;SDS011;16066;0.000;0.000;2022-07-18T12:37:51;8.97;;;1.77;;
28958;SDS011;16066;0.000;0.000;2022-07-18T12:40:17;3.10;;;1.60;;
28958;SDS011;16066;0.000;0.000;2022-07-18T12:42:43;2.37;;;1.77;;
28958;SDS011;16066;0.000;0.000;2022-07-18T12:45:10;1.70;;;1.47;;
28958;SDS011;16066;0.000;0.000;2022-07-18T12:47:37;2.37;;;1.80;;
28958;SDS011;16066;0.000;0.000;2022-07-18T12:50:03;2.63;;;1.47;;
28958;SDS011;16066;0.000;0.000;2022-07-18T12:52:29;2.37;;;1.73;;
28958;SDS011;16066;0.000;0.000;2022-07-18T12:54:55;2.33;;;1.70;;
28958;SDS011;16066;0.000;0.000;2022-07-18T12:57:21;1.90;;;1.50;;
28958;SDS011;16066;0.000;0.000;2022-07-18T12:59:47;5.93;;;1.60;;
28958;SDS011;16066;0.000;0.000;2022-07-18T13:02:13;2.87;;;1.90;;
28958;SDS011;16066;0.000;0.000;2022-07-18T13:04:39;3.30;;;1.50;;
28958;SDS011;16066;0.000;0.000;2022-07-18T13:07:05;2.47;;;1.80;;
28958;SDS011;16066;0.000;0.000;2022-07-18T13:09:30;2.43;;;1.63;;
28958;SDS011;16066;0.000;0.000;2022-07-18T13:11:56;3.53;;;1.63;;
28958;SDS011;16066;0.000;0.000;2022-07-18T13:14:23;6.00;;;1.70;;
28958;SDS011;16066;0.000;0.000;2022-07-18T13:16:49;1.70;;;1.50;;
28958;SDS011;16066;0.000;0.000;2022-07-18T13:19:16;2.20;;;1.73;;
28958;SDS011;16066;0.000;0.000;2022-07-18T13:21:42;2.10;;;1.47;;
28958;SDS011;16066;0.000;0.000;2022-07-18T13:24:08;3.90;;;1.43;;
28958;SDS011;16066;0.000;0.000;2022-07-18T13:26:34;3.60;;;1.67;;
28958;SDS011;16066;0.000;0.000;2022-07-18T13:28:59;3.17;;;1.80;;
28958;SDS011;16066;0.000;0.000;2022-07-18T13:31:25;2.80;;;1.70;;
28958;SDS011;16066;0.000;0.000;2022-07-18T13:33:51;2.20;;;1.83;;
28958;SDS011;16066;0.000;0.000;2022-07-18T13:36:17;2.90;;;1.90;;
28958;SDS011;16066;0.000;0.000;2022-07-18T13:38:42;2.30;;;1.40;;
28958;SDS011;16066;0.000;0.000;2022-07-18T13:41:08;2.60;;;1.53;;
28958;SDS011;16066;0.000;0.000;2022-07-18T13:43:34;3.87;;;1.87;;
28958;SDS011;16066;0.000;0.000;2022-07-18T13:46:08;3.30;;;1.80;;
28958;SDS011;16066;0.000;0.000;2022-07-18T13:48:35;4.50;;;1.83;;
28958;SDS011;16066;0.000;0.000;2022-07-18T13:51:01;2.43;;;1.70;;
28958;SDS011;16066;0.000;0.000;2022-07-18T13:53:27;2.33;;;1.73;;
28958;SDS011;16066;0.000;0.000;2022-07-18T13:55:52;1.67;;;1.50;;
28958;SDS011;16066;0.000;0.000;2022-07-18T13:58:18;3.07;;;1.80;;
28958;SDS011;16066;0.000;0.000;2022-07-18T14:00:44;4.53;;;1.60;;
28958;SDS011;16066;0.000;0.000;2022-07-18T14:03:10;3.83;;;2.10;;
28958;SDS011;16066;0.000;0.000;2022-07-18T14:05:36;5.20;;;1.70;;
28958;SDS011;16066;0.000;0.000;2022-07-18T14:08:02;2.23;;;1.80;;
28958;SDS011;16066;0.000;0.000;2022-07-18T14:10:28;3.70;;;1.83;;
28958;SDS011;16066;0.000;0.000;2022-07-18T14:12:54;2.53;;;1.60;;
28958;SDS011;16066;0.000;0.000;2022-07-18T14:15:19;4.07;;;1.80;;
28958;SDS011;16066;0.000;0.000;2022-07-18T14:17:45;5.60;;;1.70;;
28958;SDS011;16066;0.000;0.000;2022-07-18T14:20:11;5.10;;;1.83;;
28958;SDS011;16066;0.000;0.000;2022-07-18T14:22:38;3.90;;;1.50;;
28958;SDS011;16066;0.000;0.000;2022-07-18T14:25:04;4.90;;;1.73;;
28958;SDS011;16066;0.000;0.000;2022-07-18T14:27:31;3.83;;;2.07;;
28958;SDS011;16066;0.000;0.000;2022-07-18T14:29:57;2.73;;;1.73;;
28958;SDS011;16066;0.000;0.000;2022-07-18T14:32:24;3.77;;;1.50;;
28958;SDS011;16066;0.000;0.000;2022-07-18T14:34:50;3.33;;;1.57;;
28958;SDS011;16066;0.000;0.000;2022-07-18T14:37:16;2.13;;;1.50;;
28958;SDS011;16066;0.000;0.000;2022-07-18T14:39:41;2.70;;;1.70;;
28958;SDS011;16066;0.000;0.000;2022-07-18T14:42:07;3.90;;;2.03;;
28958;SDS011;16066;0.000;0.000;2022-07-18T14:44:33;4.53;;;1.80;;
28958;SDS011;16066;0.000;0.000;2022-07-18T14:46:58;3.83;;;1.60;;
28958;SDS011;16066;0.000;0.000;2022-07-18T14:49:24;5.13;;;1.30;;
28958;SDS011;16066;0.000;0.000;2022-07-18T14:51:49;3.10;;;1.40;;
28958;SDS011;16066;0.000;0.000;2022-07-18T14:54:15;2.43;;;1.70;;
28958;SDS011;16066;0.000;0.000;2022-07-18T14:56:40;1.97;;;1.47;;
28958;SDS011;16066;0.000;0.000;2022-07-18T14:59:06;2.80;;;1.77;;
28958;SDS011;16066;0.000;0.000;2022-07-18T15:01:31;4.30;;;1.83;;
28958;SDS011;16066;0.000;0.000;2022-07-18T15:03:58;2.47;;;1.37;;
28958;SDS011;16066;0.000;0.000;2022-07-18T15:06:24;3.27;;;1.40;;
28958;SDS011;16066;0.000;0.000;2022-07-18T15:08:50;2.07;;;1.80;;
28958;SDS011;16066;0.000;0.000;2022-07-18T15:11:15;2.73;;;1.90;;
28958;SDS011;16066;0.000;0.000;2022-07-18T15:13:43;1.53;;;1.43;;
28958;SDS011;16066;0.000;0.000;2022-07-18T15:16:09;2.23;;;1.40;;
28958;SDS011;16066;0.000;0.000;2022-07-18T15:18:35;3.40;;;1.80;;
28958;SDS011;16066;0.000;0.000;2022-07-18T15:21:02;9.77;;;1.70;;
28958;SDS011;16066;0.000;0.000;2022-07-18T15:23:27;5.93;;;2.00;;
28958;SDS011;16066;0.000;0.000;2022-07-18T15:25:53;2.67;;;1.40;;
28958;SDS011;16066;0.000;0.000;2022-07-18T15:28:19;3.30;;;1.67;;